Time;durP1;ratioP1;P1;durP2;ratioP2;P2;SDS_P1;SDS_P2;PMS_P1;PMS_P2;Temp;Humidity;BMP_temperature;BMP_pressure;BME280_temperature;BME280_humidity;BME280_pressure;Samples;Min_cycle;Max_cycle;Signal;HPM_P1;HPM_P2
2022/11/10 00:00:05;;;;;;;5.00;2.65;;;;;;;10.66;100.00;99184.44;5037457;28;20431;-59
2022/11/10 00:02:31;;;;;;;5.18;2.30;;;;;;;10.67;100.00;99191.53;5035189;28;20080;-57
2022/11/10 00:04:56;;;;;;;9.15;3.90;;;;;;;10.69;100.00;99199.47;5027734;28;20502;-57
2022/11/10 00:07:26;;;;;;;6.97;2.72;;;;;;;10.72;100.00;99191.78;5050581;28;20491;-57
2022/11/10 00:09:52;;;;;;;6.80;2.60;;;;;;;10.74;100.00;99203.25;5041577;28;20481;-57
2022/11/10 00:12:19;;;;;;;4.35;2.70;;;;;;;10.70;100.00;99196.53;5031381;28;20029;-57
2022/11/10 00:17:30;;;;;;;9.50;2.95;;;;;;;10.52;100.00;99206.97;5051751;28;20482;-58
2022/11/10 00:19:56;;;;;;;7.45;2.90;;;;;;;10.51;100.00;99208.03;5036608;28;20041;-58
2022/11/10 00:22:21;;;;;;;5.15;2.63;;;;;;;10.46;100.00;99216.72;5031801;28;20029;-59
2022/11/10 00:24:46;;;;;;;6.55;2.80;;;;;;;10.47;100.00;99214.84;5039928;28;20025;-59
2022/11/10 00:27:13;;;;;;;6.00;3.30;;;;;;;10.47;100.00;99212.13;5038697;28;20037;-59
2022/11/10 00:29:39;;;;;;;6.03;2.75;;;;;;;10.48;100.00;99214.66;5033884;28;21143;-59
2022/11/10 00:32:05;;;;;;;8.85;3.25;;;;;;;10.53;100.00;99214.06;5021939;28;20123;-59
2022/11/10 00:34:30;;;;;;;5.55;2.30;;;;;;;10.56;100.00;99216.41;5050493;28;20451;-60
2022/11/10 00:36:56;;;;;;;8.98;3.30;;;;;;;10.55;100.00;99213.88;5038668;28;20025;-58
2022/11/10 00:39:21;;;;;;;6.78;2.60;;;;;;;10.55;100.00;99222.00;5058316;28;20029;-58
2022/11/10 00:41:47;;;;;;;5.57;3.00;;;;;;;10.50;100.00;99220.69;5035858;28;20075;-57
2022/11/10 00:44:12;;;;;;;8.85;3.85;;;;;;;10.46;100.00;99224.81;5031026;28;20499;-58
2022/11/10 00:46:37;;;;;;;9.00;3.17;;;;;;;10.46;100.00;99229.41;5025675;28;20052;-57
2022/11/10 00:49:03;;;;;;;6.95;3.35;;;;;;;10.45;100.00;99230.41;5043591;28;20383;-59
2022/11/10 00:51:29;;;;;;;4.88;2.97;;;;;;;10.44;100.00;99237.69;5050743;28;20021;-57
2022/11/10 00:53:55;;;;;;;7.00;3.22;;;;;;;10.44;100.00;99236.88;5043564;28;20119;-59
2022/11/10 00:56:22;;;;;;;8.98;2.97;;;;;;;10.46;100.00;99245.63;5030681;28;20021;-57
2022/11/10 00:58:48;;;;;;;11.23;3.28;;;;;;;10.47;100.00;99250.00;5028183;28;20033;-57
2022/11/10 01:01:14;;;;;;;10.95;3.10;;;;;;;10.48;100.00;99247.13;5029874;28;20034;-57
2022/11/10 01:03:40;;;;;;;9.13;2.83;;;;;;;10.45;100.00;99258.31;5037909;28;22294;-57
2022/11/10 01:06:08;;;;;;;7.57;2.35;;;;;;;10.40;100.00;99249.09;5037726;28;21168;-58
2022/11/10 01:08:34;;;;;;;7.68;2.80;;;;;;;10.30;100.00;99247.53;5036247;28;20029;-57
2022/11/10 01:11:05;;;;;;;8.35;3.17;;;;;;;10.20;100.00;99260.50;5059563;28;20029;-57
2022/11/10 01:13:30;;;;;;;9.13;2.53;;;;;;;10.16;100.00;99264.59;5037764;28;20472;-57
2022/11/10 01:15:56;;;;;;;6.35;2.45;;;;;;;10.16;100.00;99264.59;5045622;28;20067;-57
2022/11/10 01:18:21;;;;;;;8.10;2.40;;;;;;;10.16;100.00;99270.00;5043808;28;20508;-57
2022/11/10 01:20:51;;;;;;;10.23;3.35;;;;;;;10.21;100.00;99278.38;5036394;28;20492;-57
2022/11/10 01:23:17;;;;;;;5.75;3.13;;;;;;;10.25;100.00;99282.41;5046101;28;20036;-58
2022/11/10 01:25:42;;;;;;;8.60;2.75;;;;;;;10.25;100.00;99284.28;5030618;28;20037;-57
2022/11/10 01:28:08;;;;;;;9.68;3.20;;;;;;;10.29;100.00;99288.28;5037594;28;20025;-57
2022/11/10 01:30:33;;;;;;;12.38;3.25;;;;;;;10.29;100.00;99282.88;5028368;28;20591;-57
2022/11/10 01:32:58;;;;;;;7.13;3.25;;;;;;;10.29;100.00;99283.72;5031713;28;20025;-57
2022/11/10 01:35:24;;;;;;;9.57;3.30;;;;;;;10.33;100.00;99289.59;5034534;28;20040;-57
2022/11/10 01:37:52;;;;;;;7.85;3.08;;;;;;;10.30;100.00;99284.56;5026309;28;20016;-57
2022/11/10 01:40:18;;;;;;;4.20;2.67;;;;;;;10.29;100.00;99294.53;5026973;28;20469;-62
2022/11/10 01:42:55;;;;;;;8.68;3.17;;;;;;;10.28;100.00;99278.50;5033873;28;20061;-57
2022/11/10 01:45:23;;;;;;;11.05;3.17;;;;;;;10.26;100.00;99299.44;5019749;28;20542;-57
2022/11/10 01:47:55;;;;;;;9.83;3.43;;;;;;;10.21;100.00;99299.19;5029242;28;20017;-57
2022/11/10 01:50:24;;;;;;;9.55;3.75;;;;;;;10.13;100.00;99294.72;5028229;28;20037;-60
2022/11/10 01:52:53;;;;;;;10.13;3.25;;;;;;;10.12;100.00;99295.75;5022501;28;20053;-57
2022/11/10 01:55:19;;;;;;;5.93;3.40;;;;;;;10.02;100.00;99300.59;5019659;28;20017;-57
2022/11/10 01:57:45;;;;;;;12.68;3.53;;;;;;;9.86;100.00;99299.78;5035861;28;20112;-57
2022/11/10 02:00:11;;;;;;;9.30;3.45;;;;;;;9.81;100.00;99306.75;5028993;28;20119;-57
2022/11/10 02:02:59;;;;;;;7.82;4.18;;;;;;;9.72;100.00;99311.44;5031024;28;20033;-57
2022/11/10 02:05:25;;;;;;;15.75;4.18;;;;;;;9.61;100.00;99315.41;5037693;28;20089;-57
2022/11/10 02:07:51;;;;;;;13.60;4.68;;;;;;;9.61;100.00;99331.59;5039262;28;20025;-58
2022/11/10 02:10:19;;;;;;;11.25;4.78;;;;;;;9.67;100.00;99332.75;5029701;28;20037;-58
2022/11/10 02:12:50;;;;;;;15.30;5.47;;;;;;;9.65;100.00;99335.63;5044699;28;20036;-59
2022/11/10 02:15:17;;;;;;;12.90;4.60;;;;;;;9.67;100.00;99327.34;5030123;28;20074;-57
2022/11/10 02:17:45;;;;;;;10.68;4.72;;;;;;;9.69;100.00;99335.25;5027818;28;20029;-57
2022/11/10 02:20:14;;;;;;;8.20;4.03;;;;;;;9.73;100.00;99345.53;5030027;28;20033;-57
2022/11/10 02:22:40;;;;;;;12.45;4.82;;;;;;;9.76;100.00;99355.13;5030940;28;20654;-57
2022/11/10 02:25:06;;;;;;;12.63;4.00;;;;;;;9.80;100.00;99357.28;5032154;28;20120;-57
2022/11/10 02:27:32;;;;;;;11.57;4.00;;;;;;;9.75;100.00;99359.69;5033185;28;20075;-57
2022/11/10 02:29:58;;;;;;;10.80;3.92;;;;;;;9.69;100.00;99355.00;5037157;28;21631;-57
2022/11/10 02:32:23;;;;;;;9.88;3.88;;;;;;;9.60;100.00;99359.66;5041937;28;20039;-57
2022/11/10 02:34:49;;;;;;;11.68;4.97;;;;;;;9.49;100.00;99364.66;5045790;28;20029;-57
2022/11/10 02:37:15;;;;;;;9.05;5.20;;;;;;;9.32;100.00;99364.78;5024479;28;20427;-57
2022/11/10 02:39:40;;;;;;;9.02;4.80;;;;;;;9.28;100.00;99368.91;5025767;28;20033;-57
2022/11/10 02:42:09;;;;;;;12.63;5.57;;;;;;;9.31;100.00;99373.94;5037769;28;20369;-57
2022/11/10 02:44:39;;;;;;;12.82;5.15;;;;;;;9.19;100.00;99369.97;5029865;28;20028;-57
2022/11/10 02:47:05;;;;;;;11.93;4.40;;;;;;;9.17;100.00;99362.06;5037672;28;20078;-57
2022/11/10 02:49:31;;;;;;;11.13;5.15;;;;;;;9.08;100.00;99373.09;5031628;28;20074;-57
2022/11/10 02:51:56;;;;;;;16.83;4.72;;;;;;;8.97;100.00;99379.75;5029994;28;20041;-57
2022/11/10 02:54:21;;;;;;;11.30;3.97;;;;;;;8.85;100.00;99378.47;5030111;28;20032;-57
2022/11/10 02:56:47;;;;;;;15.30;4.93;;;;;;;8.81;100.00;99383.38;5026631;28;20059;-57
2022/11/10 02:59:12;;;;;;;10.32;4.32;;;;;;;8.75;100.00;99386.78;5026365;28;20021;-57
2022/11/10 03:01:38;;;;;;;16.20;4.18;;;;;;;8.76;100.00;99386.63;5029493;28;20468;-57
2022/11/10 03:04:04;;;;;;;19.15;5.20;;;;;;;8.91;100.00;99393.97;5034720;28;20099;-57
2022/11/10 03:06:30;;;;;;;14.98;4.93;;;;;;;8.90;100.00;99397.66;5028006;28;20111;-57
2022/11/10 03:08:57;;;;;;;9.93;4.88;;;;;;;8.94;100.00;99397.13;5028851;28;20456;-57
2022/11/10 03:11:23;;;;;;;12.90;4.57;;;;;;;8.93;100.00;99408.97;5033202;28;20041;-57
2022/11/10 03:13:48;;;;;;;9.52;3.83;;;;;;;8.91;100.00;99416.38;5053330;28;20381;-57
2022/11/10 03:16:14;;;;;;;9.98;4.07;;;;;;;8.87;100.00;99417.75;5027536;28;20171;-57
2022/11/10 03:18:39;;;;;;;5.30;4.00;;;;;;;9.03;100.00;99418.66;5033364;28;20469;-57
2022/11/10 03:21:05;;;;;;;12.13;6.00;;;;;;;8.99;100.00;99416.34;5035283;28;20028;-57
2022/11/10 03:23:32;;;;;;;16.02;6.10;;;;;;;9.07;100.00;99417.31;5033332;28;20033;-57
2022/11/10 03:25:58;;;;;;;9.18;5.63;;;;;;;9.13;100.00;99424.69;5036300;28;20043;-59
2022/11/10 03:28:24;;;;;;;12.52;5.05;;;;;;;9.15;100.00;99423.47;5036038;28;20480;-57
2022/11/10 03:30:50;;;;;;;13.43;5.63;;;;;;;9.29;100.00;99429.13;5033719;28;20017;-57
2022/11/10 03:33:16;;;;;;;11.88;5.03;;;;;;;9.25;100.00;99427.78;5036580;28;20033;-57
2022/11/10 03:35:42;;;;;;;10.75;4.82;;;;;;;9.32;100.00;99442.25;5028657;28;20374;-57
2022/11/10 03:38:07;;;;;;;12.40;4.53;;;;;;;9.32;100.00;99434.16;5031950;28;20075;-57
2022/11/10 03:40:33;;;;;;;10.85;4.40;;;;;;;9.35;100.00;99433.81;5036034;28;20041;-57
2022/11/10 03:42:58;;;;;;;10.38;4.18;;;;;;;9.25;100.00;99434.06;5023315;28;20389;-57
2022/11/10 03:45:23;;;;;;;10.60;4.82;;;;;;;9.21;100.00;99435.41;5039147;28;20385;-58
2022/11/10 03:47:49;;;;;;;12.80;4.82;;;;;;;9.10;100.00;99422.34;5040837;28;20021;-57
2022/11/10 03:50:15;;;;;;;10.95;4.60;;;;;;;8.87;100.00;99420.44;5042358;28;20472;-57
2022/11/10 03:52:42;;;;;;;8.85;4.07;;;;;;;8.83;100.00;99429.94;5032105;28;20020;-57
2022/11/10 03:55:16;;;;;;;13.40;4.93;;;;;;;8.83;100.00;99427.22;5049091;28;20024;-57
2022/11/10 03:57:43;;;;;;;10.07;4.60;;;;;;;8.72;100.00;99438.38;5034790;28;20452;-57
2022/11/10 04:00:10;;;;;;;13.45;4.90;;;;;;;8.65;100.00;99438.28;5045564;28;20028;-59
2022/11/10 04:02:36;;;;;;;14.15;4.90;;;;;;;8.71;100.00;99444.81;5031163;28;20032;-59
2022/11/10 04:10:39;;;;;;;12.82;5.00;;;;;;;8.55;100.00;99467.31;5052939;28;20396;-59
2022/11/10 04:15:48;;;;;;;18.00;5.72;;;;;;;8.61;100.00;99480.09;5065150;28;20040;-59
2022/11/10 04:18:20;;;;;;;18.73;5.82;;;;;;;8.59;100.00;99483.97;5036432;28;20025;-59
2022/11/10 04:20:47;;;;;;;20.48;5.78;;;;;;;8.53;100.00;99486.34;5028414;28;20045;-59
2022/11/10 04:26:27;;;;;;;20.20;5.63;;;;;;;8.53;100.00;99494.44;5051616;28;20104;-59
2022/11/10 04:28:58;;;;;;;14.10;5.82;;;;;;;8.50;100.00;99497.47;5026933;28;20637;-59
2022/11/10 04:31:26;;;;;;;18.48;5.38;;;;;;;8.41;100.00;99494.97;5042874;28;20166;-59
2022/11/10 04:33:52;;;;;;;12.63;5.72;;;;;;;8.46;100.00;99493.47;5034119;28;20089;-59
2022/11/10 04:36:21;;;;;;;11.60;5.55;;;;;;;8.45;100.00;99499.84;5036448;28;20115;-59
2022/11/10 04:38:46;;;;;;;13.02;5.47;;;;;;;8.34;100.00;99498.34;5028892;28;20027;-59
2022/11/10 04:41:13;;;;;;;14.20;5.63;;;;;;;8.27;100.00;99510.81;5035472;28;20049;-59
2022/11/10 04:43:39;;;;;;;14.85;5.60;;;;;;;8.16;100.00;99516.56;5053637;28;20033;-59
2022/11/10 04:46:06;;;;;;;17.38;6.28;;;;;;;8.06;100.00;99511.34;5035629;28;20067;-59
2022/11/10 04:48:33;;;;;;;21.83;5.75;;;;;;;7.97;100.00;99506.97;5029031;28;20032;-59
2022/11/10 04:51:03;;;;;;;17.42;6.22;;;;;;;7.86;100.00;99496.56;5134305;22;20406;-82
2022/11/10 04:53:28;;;;;;;18.67;5.50;;;;;;;7.43;100.00;99436.63;5090600;28;20080;-78
2022/11/10 04:55:53;;;;;;;12.30;5.30;;;;;;;7.79;100.00;99498.22;5092609;28;20021;-74
2022/11/10 04:58:19;;;;;;;17.00;6.03;;;;;;;7.61;100.00;99483.06;5077368;28;20073;-73
2022/11/10 05:00:44;;;;;;;21.08;5.95;;;;;;;7.82;100.00;99535.59;5076118;28;20035;-71
2022/11/10 05:03:12;;;;;;;16.58;5.90;;;;;;;7.98;100.00;99545.53;5070895;28;20056;-75
2022/11/10 05:05:38;;;;;;;22.25;6.32;;;;;;;8.05;100.00;99558.19;5067490;28;20028;-75
2022/11/10 05:08:03;;;;;;;24.70;6.88;;;;;;;7.88;100.00;99534.91;5060632;28;20025;-75
2022/11/10 05:10:29;;;;;;;20.30;6.93;;;;;;;7.93;100.00;99545.19;5061408;28;20071;-77
2022/11/10 05:12:55;;;;;;;12.45;5.80;;;;;;;7.94;100.00;99547.75;5060902;28;20489;-75
2022/11/10 05:15:21;;;;;;;15.38;6.03;;;;;;;8.08;100.00;99560.53;5067748;28;20477;-71
2022/11/10 05:17:51;;;;;;;11.65;5.70;;;;;;;7.98;100.00;99567.94;5066743;28;20033;-72
2022/11/10 05:20:17;;;;;;;10.90;5.18;;;;;;;7.85;100.00;99548.72;5069310;28;20024;-74
2022/11/10 05:22:45;;;;;;;12.32;5.63;;;;;;;7.95;100.00;99573.66;5058488;28;20167;-77
2022/11/10 05:25:10;;;;;;;18.45;5.25;;;;;;;7.87;100.00;99577.19;5059712;28;20031;-76
2022/11/10 05:27:36;;;;;;;9.13;4.75;;;;;;;7.58;100.00;99539.97;5066079;28;20021;-78
2022/11/10 05:30:01;;;;;;;9.05;5.40;;;;;;;7.68;100.00;99572.97;5070486;28;20034;-72
2022/11/10 05:32:26;;;;;;;17.75;5.05;;;;;;;7.67;100.00;99563.19;5060216;28;20158;-71
2022/11/10 05:34:52;;;;;;;13.48;5.10;;;;;;;7.81;100.00;99577.88;5066439;28;20096;-75
2022/11/10 05:37:17;;;;;;;12.68;5.32;;;;;;;7.68;100.00;99564.88;5068436;28;20404;-72
2022/11/10 05:39:42;;;;;;;16.48;5.80;;;;;;;7.68;100.00;99572.13;5067734;28;20016;-70
2022/11/10 05:42:08;;;;;;;12.77;5.18;;;;;;;7.39;100.00;99551.03;5068285;28;20481;-73
2022/11/10 05:44:33;;;;;;;18.63;6.03;;;;;;;7.44;100.00;99562.13;5067316;28;20026;-75
2022/11/10 05:46:58;;;;;;;12.90;5.05;;;;;;;7.40;100.00;99560.78;5070012;28;20418;-72
2022/11/10 05:49:24;;;;;;;13.77;6.13;;;;;;;7.46;100.00;99560.13;5055012;28;20082;-70
2022/11/10 05:51:49;;;;;;;11.98;6.38;;;;;;;7.49;100.00;99570.56;5054609;28;20031;-70
2022/11/10 05:54:14;;;;;;;18.15;6.50;;;;;;;7.47;100.00;99561.81;5073938;28;20032;-73
2022/11/10 05:56:39;;;;;;;16.52;5.75;;;;;;;7.47;100.00;99586.88;5069496;28;20032;-73
2022/11/10 05:59:05;;;;;;;17.23;6.57;;;;;;;7.36;100.00;99567.50;5059580;28;20103;-74
2022/11/10 06:01:30;;;;;;;13.15;5.75;;;;;;;7.33;100.00;99567.81;5068275;28;20058;-69
2022/11/10 06:03:55;;;;;;;13.95;6.55;;;;;;;7.40;100.00;99618.16;5057801;28;20021;-71
2022/11/10 06:06:21;;;;;;;16.27;6.40;;;;;;;7.32;100.00;99612.75;5069830;28;20500;-66
2022/11/10 06:08:47;;;;;;;20.52;6.20;;;;;;;7.30;100.00;99627.38;5062982;28;20066;-77
2022/11/10 06:11:12;;;;;;;13.73;6.68;;;;;;;7.21;100.00;99629.19;5075235;28;20032;-75
2022/11/10 06:13:38;;;;;;;17.13;6.35;;;;;;;7.15;100.00;99628.00;5073432;28;20051;-70
2022/11/10 06:16:03;;;;;;;15.63;6.05;;;;;;;7.14;100.00;99630.84;5060547;28;20062;-73
2022/11/10 06:18:28;;;;;;;13.95;6.32;;;;;;;7.38;100.00;99638.16;5060214;28;20477;-75
2022/11/10 06:20:54;;;;;;;13.10;6.40;;;;;;;7.35;100.00;99638.50;5064612;28;20460;-72
2022/11/10 06:23:19;;;;;;;15.00;6.05;;;;;;;7.48;100.00;99660.44;5065667;28;20495;-68
2022/11/10 06:25:44;;;;;;;16.73;6.25;;;;;;;7.42;100.00;99639.53;5056489;28;20024;-73
2022/11/10 06:28:10;;;;;;;14.18;5.53;;;;;;;7.58;100.00;99663.00;5067016;28;20535;-76
2022/11/10 06:30:36;;;;;;;15.65;6.10;;;;;;;7.49;100.00;99650.50;5063062;28;20061;-71
2022/11/10 06:33:02;;;;;;;10.77;5.65;;;;;;;7.44;100.00;99667.13;5065540;28;20025;-76
2022/11/10 06:35:28;;;;;;;10.45;5.88;;;;;;;7.59;100.00;99686.22;5081650;28;20447;-73
2022/11/10 06:37:59;;;;;;;13.07;7.10;;;;;;;7.54;100.00;99691.25;5063936;28;20492;-66
2022/11/10 06:40:25;;;;;;;17.02;5.32;;;;;;;7.49;100.00;99689.03;5065646;28;20032;-76
2022/11/10 06:42:50;;;;;;;10.35;5.68;;;;;;;7.54;100.00;99697.47;5084208;28;20111;-74
2022/11/10 06:45:15;;;;;;;9.98;5.05;;;;;;;7.65;100.00;99705.28;5069672;28;20040;-73
2022/11/10 06:47:41;;;;;;;13.55;5.35;;;;;;;7.69;100.00;99676.16;5061198;28;20081;-73
2022/11/10 06:50:06;;;;;;;15.85;5.32;;;;;;;8.00;100.00;99714.13;5068740;28;20044;-67
2022/11/10 06:52:31;;;;;;;13.23;5.70;;;;;;;8.21;100.00;99720.91;5071612;28;20500;-72
2022/11/10 06:54:58;;;;;;;10.82;5.93;;;;;;;8.33;100.00;99720.44;5080545;28;20177;-72
2022/11/10 06:57:23;;;;;;;9.93;5.82;;;;;;;8.96;100.00;99710.00;5070774;28;20024;-73
2022/11/10 06:59:48;;;;;;;11.48;6.03;;;;;;;10.33;100.00;99735.88;5071135;28;20359;-71
2022/11/10 07:02:14;;;;;;;10.88;4.88;;;;;;;11.55;100.00;99735.81;5077654;28;20032;-75
2022/11/10 07:04:41;;;;;;;7.28;3.97;;;;;;;12.45;100.00;99672.25;5065768;28;20013;-76
2022/11/10 07:07:06;;;;;;;48.53;24.08;;;;;;;13.38;100.00;99643.91;5066342;28;20024;-75
2022/11/10 07:09:33;;;;;;;29.92;15.27;;;;;;;13.92;100.00;99645.00;5070054;28;20076;-80
2022/11/10 07:11:58;;;;;;;16.17;10.18;;;;;;;14.52;100.00;99680.50;5083062;28;20052;-76
2022/11/10 07:14:23;;;;;;;14.18;6.25;;;;;;;15.09;100.00;99649.13;5083280;28;20036;-72
2022/11/10 07:16:49;;;;;;;14.60;5.20;;;;;;;15.25;100.00;99687.88;5069351;28;20029;-68
2022/11/10 07:19:14;;;;;;;8.80;4.28;;;;;;;16.06;100.00;99686.59;5062932;28;20060;-69
2022/11/10 07:21:41;;;;;;;14.30;4.78;;;;;;;16.43;100.00;99683.03;5057115;28;20569;-78
2022/11/10 07:24:06;;;;;;;10.30;3.10;;;;;;;17.61;100.00;99673.19;5077150;28;20094;-70
2022/11/10 07:26:31;;;;;;;8.68;3.70;;;;;;;18.15;100.00;99665.97;5062362;28;20498;-78
2022/11/10 07:28:57;;;;;;;8.70;3.08;;;;;;;18.03;92.55;99681.53;5058795;28;20051;-72
2022/11/10 07:31:22;;;;;;;9.07;2.50;;;;;;;17.84;90.93;99688.09;5078893;28;20115;-73
2022/11/10 07:33:47;;;;;;;8.10;2.70;;;;;;;17.33;100.00;99698.31;5067270;28;20032;-69
2022/11/10 07:36:13;;;;;;;6.50;2.40;;;;;;;18.04;100.00;99705.13;5064507;28;20031;-70
2022/11/10 07:38:38;;;;;;;7.85;2.22;;;;;;;18.22;87.71;99693.28;5080200;28;20028;-69
2022/11/10 07:41:03;;;;;;;7.82;2.80;;;;;;;17.47;91.07;99713.50;5071836;28;20032;-70
2022/11/10 07:43:29;;;;;;;6.30;2.35;;;;;;;17.68;97.26;99715.00;5070815;28;20025;-70
2022/11/10 07:45:54;;;;;;;4.55;2.00;;;;;;;17.93;87.62;99698.50;5059862;28;20095;-70
2022/11/10 07:48:19;;;;;;;7.88;2.70;;;;;;;16.06;100.00;99733.84;5064236;28;20123;-70
2022/11/10 07:50:45;;;;;;;8.57;2.58;;;;;;;14.58;100.00;99731.44;5064034;28;20497;-74
2022/11/10 07:53:13;;;;;;;7.72;2.85;;;;;;;14.30;100.00;99736.16;5071369;28;20034;-74
2022/11/10 07:55:42;;;;;;;7.63;2.77;;;;;;;13.62;100.00;99739.63;5070167;28;20109;-74
2022/11/10 07:58:08;;;;;;;7.18;2.65;;;;;;;13.92;100.00;99732.03;5060891;28;20127;-76
2022/11/10 08:00:35;;;;;;;7.22;2.65;;;;;;;14.79;100.00;99751.41;5061799;28;20158;-75
2022/11/10 08:03:06;;;;;;;15.68;2.88;;;;;;;14.79;100.00;99726.88;5074588;28;20074;-75
2022/11/10 08:05:32;;;;;;;7.18;2.42;;;;;;;13.87;100.00;99747.31;5069752;28;20024;-75
2022/11/10 08:07:59;;;;;;;15.02;2.70;;;;;;;13.23;100.00;99735.59;5066681;28;20017;-73
2022/11/10 08:10:25;;;;;;;10.60;2.55;;;;;;;14.75;100.00;99758.28;5073928;28;20111;-73
2022/11/10 08:12:59;;;;;;;9.75;2.30;;;;;;;16.13;100.00;99763.84;5071969;28;20021;-74
2022/11/10 08:15:26;;;;;;;4.40;2.22;;;;;;;17.83;89.51;99752.13;5067467;28;20079;-75
2022/11/10 08:17:59;;;;;;;5.70;1.85;;;;;;;18.81;82.72;99759.31;5070807;28;20103;-74
2022/11/10 08:20:24;;;;;;;5.00;1.80;;;;;;;20.16;71.49;99746.59;5090767;28;20048;-76
2022/11/10 08:22:56;;;;;;;10.77;1.85;;;;;;;20.68;66.63;99756.72;5069330;28;20028;-77
2022/11/10 08:25:22;;;;;;;7.72;1.70;;;;;;;20.87;62.98;99765.59;5076019;28;20378;-77
2022/11/10 08:27:47;;;;;;;7.57;2.20;;;;;;;21.36;63.24;99752.94;5074778;28;20024;-77
2022/11/10 08:30:12;;;;;;;5.72;2.25;;;;;;;20.84;63.43;99761.41;5070184;28;20029;-74
2022/11/10 08:32:38;;;;;;;7.35;1.63;;;;;;;21.92;60.18;99766.75;5075297;28;20103;-71
2022/11/10 08:35:03;;;;;;;8.82;1.75;;;;;;;20.56;61.84;99748.50;5065508;28;20039;-73
2022/11/10 08:37:29;;;;;;;11.05;2.03;;;;;;;21.62;60.93;99762.47;5064946;28;20024;-73
2022/11/10 08:39:54;;;;;;;8.70;2.17;;;;;;;21.67;59.52;99770.81;5059872;28;20028;-69
2022/11/10 08:42:20;;;;;;;7.80;2.83;;;;;;;22.49;56.95;99771.09;5072324;28;20021;-78
2022/11/10 08:44:46;;;;;;;5.90;2.40;;;;;;;22.06;56.77;99747.91;5087375;28;20025;-77
2022/11/10 08:47:11;;;;;;;7.65;2.85;;;;;;;21.35;58.21;99767.81;5066910;28;20035;-74
2022/11/10 08:49:36;;;;;;;7.13;2.25;;;;;;;22.03;56.43;99787.00;5066892;28;20127;-70
2022/11/10 08:52:02;;;;;;;4.47;1.70;;;;;;;23.12;52.97;99786.13;5061092;28;20027;-72
2022/11/10 08:54:27;;;;;;;7.57;1.70;;;;;;;23.32;55.44;99793.75;5063173;28;20020;-72
2022/11/10 08:56:52;;;;;;;6.18;2.00;;;;;;;22.34;55.66;99801.22;5069619;28;20017;-71
2022/11/10 08:59:18;;;;;;;3.95;1.70;;;;;;;23.97;52.54;99780.72;5062486;28;20717;-71
2022/11/10 09:01:43;;;;;;;6.40;1.70;;;;;;;23.75;51.95;99802.13;5074023;28;20032;-75
2022/11/10 09:04:08;;;;;;;5.22;1.55;;;;;;;24.14;50.13;99794.34;5064250;28;20043;-78
2022/11/10 09:06:33;;;;;;;5.60;1.60;;;;;;;23.71;49.68;99793.53;5067385;28;20035;-77
2022/11/10 09:08:59;;;;;;;5.78;1.55;;;;;;;23.56;50.02;99807.22;5063807;28;20024;-72
2022/11/10 09:11:24;;;;;;;5.43;1.80;;;;;;;24.41;49.60;99809.97;5061204;28;20124;-73
2022/11/10 09:13:49;;;;;;;4.93;1.60;;;;;;;24.04;49.97;99808.13;5060611;28;20082;-71
2022/11/10 09:16:15;;;;;;;6.18;1.63;;;;;;;24.08;50.97;99816.69;5066222;28;20032;-69
2022/11/10 09:18:40;;;;;;;7.70;1.60;;;;;;;23.47;52.80;99808.78;5071874;28;20024;-73
2022/11/10 09:21:10;;;;;;;5.15;1.60;;;;;;;24.27;49.71;99818.75;5070592;28;20024;-71
2022/11/10 09:23:36;;;;;;;5.85;1.63;;;;;;;24.21;50.11;99811.53;5067400;28;20020;-70
2022/11/10 09:26:01;;;;;;;5.63;1.45;;;;;;;25.09;48.33;99823.75;5065506;28;20024;-70
2022/11/10 09:28:26;;;;;;;5.20;1.70;;;;;;;25.11;48.54;99816.84;5063204;28;20633;-73
2022/11/10 09:30:52;;;;;;;5.00;1.55;;;;;;;24.10;49.77;99839.38;5066974;28;20107;-73
2022/11/10 09:33:17;;;;;;;4.95;1.70;;;;;;;24.42;48.85;99833.75;5066546;28;20579;-71
2022/11/10 09:35:43;;;;;;;4.78;1.40;;;;;;;25.04;48.77;99841.19;5066709;28;20027;-75
2022/11/10 09:38:08;;;;;;;4.88;1.40;;;;;;;25.44;48.94;99824.91;5065726;28;20051;-76
2022/11/10 09:40:55;;;;;;;9.45;1.55;;;;;;;25.91;48.02;99849.63;5072478;28;20035;-76
2022/11/10 09:43:29;;;;;;;7.07;1.50;;;;;;;25.19;48.70;99847.91;5062280;28;20024;-77
2022/11/10 09:45:58;;;;;;;6.30;1.38;;;;;;;24.92;49.69;99851.69;5075649;28;20024;-76
2022/11/10 09:48:35;;;;;;;6.53;1.80;;;;;;;24.57;48.67;99864.28;5071260;28;20381;-78
2022/11/10 09:51:06;;;;;;;4.70;1.80;;;;;;;25.30;48.42;99866.19;5069287;28;20024;-75
2022/11/10 09:53:40;;;;;;;5.75;1.30;;;;;;;24.91;49.74;99839.75;5071175;28;20043;-75
2022/11/10 09:56:07;;;;;;;5.22;1.50;;;;;;;25.33;47.46;99868.41;5060309;28;20032;-74
2022/11/10 09:58:42;;;;;;;3.45;1.40;;;;;;;25.48;47.17;99845.44;5076284;28;20024;-75
2022/11/10 10:01:07;;;;;;;8.27;1.60;;;;;;;25.65;46.32;99870.94;5067874;28;20028;-73
2022/11/10 10:03:35;;;;;;;3.30;1.08;;;;;;;25.73;46.77;99853.75;5061483;28;20082;-77
2022/11/10 10:06:14;;;;;;;6.82;1.60;;;;;;;26.15;45.10;99863.72;5065637;28;20056;-76
2022/11/10 10:09:10;;;;;;;7.13;1.30;;;;;;;25.33;47.11;99862.88;5054397;28;20044;-73
2022/11/10 10:11:47;;;;;;;5.80;1.10;;;;;;;25.70;45.16;99837.69;5065070;28;20078;-74
2022/11/10 10:14:31;;;;;;;6.15;1.27;;;;;;;25.23;47.19;99871.16;5064029;28;20060;-75
2022/11/10 10:17:19;;;;;;;4.63;1.70;;;;;;;25.73;44.03;99867.63;5060077;28;20028;-74
2022/11/10 10:19:51;;;;;;;;;;;;;;;26.34;44.85;99863.94;5066914;28;20021;-74
2022/11/10 10:22:34;;;;;;;5.72;1.20;;;;;;;26.36;43.61;99860.91;5074083;28;19916;-73
2022/11/10 10:25:08;;;;;;;6.50;1.58;;;;;;;25.55;44.52;99855.13;5072513;28;20032;-68
2022/11/10 10:27:37;;;;;;;5.57;1.08;;;;;;;25.00;46.69;99858.63;5073151;28;20026;-66
2022/11/10 10:30:11;;;;;;;5.45;0.98;;;;;;;25.89;43.05;99874.00;5063232;28;20472;-69
2022/11/10 10:32:37;;;;;;;6.90;1.48;;;;;;;25.81;45.72;99869.00;5062908;28;20020;-70
2022/11/10 10:35:02;;;;;;;5.80;2.53;;;;;;;25.00;47.33;99872.47;5075984;28;20033;-70
2022/11/10 10:37:43;;;;;;;3.45;1.20;;;;;;;25.09;44.51;99874.41;5080304;28;20588;-65
2022/11/10 10:40:18;;;;;;;4.35;1.25;;;;;;;24.42;45.43;99878.03;5072844;28;20029;-64
2022/11/10 10:42:44;;;;;;;6.30;1.42;;;;;;;24.54;45.42;99862.06;5073370;28;20032;-63
2022/11/10 10:45:20;;;;;;;3.60;1.27;;;;;;;24.40;45.26;99867.22;5074911;28;20367;-64
2022/11/10 10:47:48;;;;;;;3.25;0.80;;;;;;;25.12;45.53;99867.50;5075504;28;20466;-65
2022/11/10 10:50:24;;;;;;;5.28;1.70;;;;;;;25.35;45.59;99860.66;5099970;22;20045;-75
2022/11/10 10:53:17;;;;;;;4.45;1.50;;;;;;;26.26;43.96;99856.19;5070390;28;20040;-73
2022/11/10 10:55:46;;;;;;;4.65;1.00;;;;;;;25.29;44.46;99859.00;5072104;28;20115;-75
2022/11/10 10:58:38;;;;;;;3.13;1.00;;;;;;;26.29;42.46;99855.63;5069186;28;20025;-75
2022/11/10 11:01:29;;;;;;;5.60;0.93;;;;;;;25.57;43.23;99860.38;5074359;28;20085;-75
2022/11/10 11:03:56;;;;;;;4.53;0.90;;;;;;;25.85;42.24;99870.13;5080131;28;20024;-76
2022/11/10 11:06:25;;;;;;;4.40;1.25;;;;;;;25.58;42.77;99868.44;5074740;28;20077;-75
2022/11/10 11:08:57;;;;;;;5.45;0.73;;;;;;;25.90;42.19;99872.91;5073388;28;20021;-74
2022/11/10 11:11:29;;;;;;;4.07;0.70;;;;;;;26.35;41.60;99845.34;5077104;28;20027;-74
2022/11/10 11:14:13;;;;;;;4.45;0.93;;;;;;;26.48;40.31;99861.38;5063485;28;20108;-73
2022/11/10 11:16:50;;;;;;;5.45;1.50;;;;;;;26.80;41.51;99858.25;5065673;28;20432;-75
2022/11/10 11:19:19;;;;;;;4.20;0.90;;;;;;;26.40;42.92;99861.97;5078039;28;20733;-71
2022/11/10 11:21:47;;;;;;;7.35;0.90;;;;;;;26.44;40.64;99855.59;5066634;28;20119;-71
2022/11/10 11:24:27;;;;;;;3.33;0.70;;;;;;;26.47;40.37;99861.69;5064705;28;20040;-69
2022/11/10 11:27:11;;;;;;;5.00;1.15;;;;;;;26.79;40.46;99859.34;5062500;28;20110;-69
2022/11/10 11:29:48;;;;;;;6.22;0.90;;;;;;;28.16;38.78;99856.72;5058368;28;20029;-69
2022/11/10 11:32:44;;;;;;;2.55;0.70;;;;;;;27.71;39.17;99853.19;5070091;28;20032;-70
2022/11/10 11:35:38;;;;;;;4.32;0.90;;;;;;;26.84;39.29;99850.19;5064866;28;20032;-71
2022/11/10 11:38:09;;;;;;;2.70;0.75;;;;;;;25.82;39.26;99858.75;5057601;28;20036;-71
2022/11/10 11:40:44;;;;;;;3.63;0.60;;;;;;;26.19;39.88;99850.09;5062520;28;20101;-70
2022/11/10 11:43:12;;;;;;;2.08;0.73;;;;;;;26.72;40.72;99858.00;5065380;28;20111;-71